Time;durP1;ratioP1;P1;durP2;ratioP2;P2;SDS_P1;SDS_P2;PMS_P1;PMS_P2;Temp;Humidity;BMP_temperature;BMP_pressure;BME280_temperature;BME280_humidity;BME280_pressure;Samples;Min_cycle;Max_cycle;Signal;HPM_P1;HPM_P2
2022/01/01 00:00:45;;;;;;;2.30;2.03;;;;;;;8.40;98.52;95562.53;4954747;29;20277;-72
2022/01/01 00:03:10;;;;;;;3.17;2.53;;;;;;;8.37;99.04;95550.53;4944307;28;20388;-73
2022/01/01 00:05:42;;;;;;;3.30;2.80;;;;;;;8.45;98.60;95546.44;4954548;29;20217;-72
2022/01/01 00:08:08;;;;;;;3.63;2.10;;;;;;;8.59;96.57;95548.03;4954799;29;20216;-73
2022/01/01 00:10:34;;;;;;;1.97;1.67;;;;;;;8.57;96.67;95560.56;4953443;29;20189;-73
2022/01/01 00:13:00;;;;;;;1.93;1.50;;;;;;;8.57;96.37;95553.13;4948326;28;20194;-73
2022/01/01 00:15:26;;;;;;;2.20;1.30;;;;;;;8.47;96.65;95546.78;4953154;29;20197;-73
2022/01/01 00:17:51;;;;;;;3.97;2.23;;;;;;;8.48;96.53;95563.91;4949643;29;20198;-73
2022/01/01 00:20:17;;;;;;;2.20;2.00;;;;;;;8.45;97.14;95548.41;4954165;28;20197;-73
2022/01/01 00:22:43;;;;;;;2.23;1.53;;;;;;;8.51;96.91;95557.59;4954576;28;20280;-72
2022/01/01 00:25:13;;;;;;;2.83;1.97;;;;;;;8.49;96.94;95546.34;4953319;28;20221;-72
2022/01/01 00:27:39;;;;;;;3.83;1.83;;;;;;;8.54;96.63;95549.34;4952609;29;20205;-72
2022/01/01 00:30:09;;;;;;;2.27;1.80;;;;;;;8.63;96.07;95548.72;4937018;29;20198;-72
2022/01/01 00:32:37;;;;;;;2.43;1.37;;;;;;;8.45;96.75;95546.44;4945560;29;20315;-72
2022/01/01 00:35:04;;;;;;;4.30;1.50;;;;;;;8.38;97.44;95541.19;4934078;29;20743;-72
2022/01/01 00:37:30;;;;;;;2.10;1.57;;;;;;;8.49;96.83;95562.69;4934028;29;20187;-72
2022/01/01 00:39:55;;;;;;;1.50;1.40;;;;;;;8.51;96.94;95566.53;4917925;29;20258;-72
2022/01/01 00:42:23;;;;;;;2.47;1.33;;;;;;;8.44;97.04;95568.66;4947489;28;20202;-72
2022/01/01 00:44:48;;;;;;;1.93;1.40;;;;;;;8.41;97.44;95562.13;4933396;29;20593;-72
2022/01/01 00:47:14;;;;;;;1.37;1.27;;;;;;;8.44;97.09;95568.66;4934612;29;20202;-73
2022/01/01 00:49:40;;;;;;;5.60;1.83;;;;;;;8.34;98.04;95573.19;4942869;28;20193;-73
2022/01/01 00:52:09;;;;;;;1.87;1.50;;;;;;;8.49;96.45;95576.31;4966388;28;20201;-72
2022/01/01 00:54:35;;;;;;;2.20;1.93;;;;;;;8.46;96.92;95575.22;4946413;28;20677;-73
2022/01/01 00:57:03;;;;;;;1.47;1.37;;;;;;;8.45;97.01;95570.94;4948900;29;20194;-73
2022/01/01 00:59:30;;;;;;;3.03;2.10;;;;;;;8.35;98.15;95580.13;4945354;29;20197;-72
2022/01/01 01:01:59;;;;;;;2.03;1.80;;;;;;;8.34;99.25;95583.28;4936617;29;20589;-72
2022/01/01 01:04:25;;;;;;;3.33;1.90;;;;;;;8.25;98.99;95585.84;4948739;28;20237;-72
2022/01/01 01:06:51;;;;;;;3.40;2.17;;;;;;;8.48;97.30;95580.97;4951734;29;20558;-72
2022/01/01 01:09:20;;;;;;;4.70;2.13;;;;;;;8.38;98.70;95589.41;4936760;29;20182;-73
2022/01/01 01:11:48;;;;;;;3.30;2.27;;;;;;;8.22;99.88;95592.09;4935316;29;20554;-72
2022/01/01 01:14:24;;;;;;;3.87;2.53;;;;;;;8.18;100.00;95603.06;4951259;28;20718;-72
2022/01/01 01:16:52;;;;;;;3.23;2.57;;;;;;;8.08;100.00;95606.03;4935642;29;20572;-74
2022/01/01 01:19:18;;;;;;;4.47;2.67;;;;;;;8.00;100.00;95604.66;4949138;28;20253;-73
2022/01/01 01:21:49;;;;;;;9.10;3.60;;;;;;;7.94;100.00;95611.81;4943174;29;20289;-73
2022/01/01 01:24:15;;;;;;;3.10;2.80;;;;;;;7.67;100.00;95595.66;4948658;28;20237;-73
2022/01/01 01:26:48;;;;;;;10.13;6.37;;;;;;;7.55;100.00;95615.34;4933411;29;20202;-73
2022/01/01 01:29:18;;;;;;;11.50;9.10;;;;;;;7.41;100.00;95621.09;4952613;29;20228;-73
2022/01/01 01:31:45;;;;;;;5.77;4.93;;;;;;;7.24;100.00;95622.19;4951636;28;20257;-73
2022/01/01 01:34:11;;;;;;;6.10;4.30;;;;;;;7.10;100.00;95627.91;4952482;28;20231;-73
2022/01/01 01:36:38;;;;;;;4.93;3.63;;;;;;;7.05;100.00;95621.00;4952059;29;20642;-72
2022/01/01 01:39:04;;;;;;;3.63;2.90;;;;;;;7.05;100.00;95631.09;4950390;29;20192;-72
2022/01/01 01:41:31;;;;;;;5.83;4.40;;;;;;;7.04;100.00;95641.19;4947789;28;20275;-72
2022/01/01 01:44:03;;;;;;;4.40;3.27;;;;;;;7.02;100.00;95626.50;4952441;29;20293;-72
2022/01/01 01:46:29;;;;;;;3.10;2.10;;;;;;;7.00;100.00;95624.22;4951497;29;20218;-72
2022/01/01 01:49:00;;;;;;;3.13;2.17;;;;;;;7.01;100.00;95633.88;4949687;28;20190;-73
2022/01/01 01:51:25;;;;;;;4.10;2.20;;;;;;;6.97;100.00;95640.56;4956488;28;20190;-73
2022/01/01 01:53:58;;;;;;;2.23;1.63;;;;;;;6.99;100.00;95640.91;4916913;29;20215;-72
2022/01/01 01:56:24;;;;;;;2.63;2.03;;;;;;;7.02;100.00;95629.22;4932728;29;21005;-73
2022/01/01 01:58:50;;;;;;;5.97;2.60;;;;;;;7.13;100.00;95641.41;4949090;29;20198;-72
2022/01/01 02:01:23;;;;;;;3.00;2.30;;;;;;;7.16;100.00;95635.13;4952785;28;20209;-72
2022/01/01 02:03:49;;;;;;;3.20;2.17;;;;;;;7.16;100.00;95634.41;4947839;28;20279;-72
2022/01/01 02:06:17;;;;;;;2.70;2.07;;;;;;;7.18;100.00;95632.78;4935915;29;20201;-72
2022/01/01 02:08:43;;;;;;;2.20;1.90;;;;;;;7.22;100.00;95638.16;4952353;29;20194;-72
2022/01/01 02:11:09;;;;;;;2.47;2.10;;;;;;;7.31;100.00;95635.66;4937876;28;20230;-72
2022/01/01 02:13:48;;;;;;;3.07;1.90;;;;;;;7.38;100.00;95636.25;4948693;29;20214;-72
2022/01/01 02:18:47;;;;;;;2.80;1.93;;;;;;;7.48;100.00;95636.47;4956122;28;20204;-72
2022/01/01 02:21:13;;;;;;;2.40;2.00;;;;;;;7.46;100.00;95636.13;4964180;28;20197;-73
2022/01/01 02:23:44;;;;;;;3.80;2.30;;;;;;;7.55;100.00;95645.25;4943611;28;20222;-73
2022/01/01 02:26:12;;;;;;;2.53;1.80;;;;;;;7.49;100.00;95641.50;4933286;29;20202;-72
2022/01/01 02:28:43;;;;;;;2.03;1.83;;;;;;;7.53;100.00;95642.19;4933665;29;20218;-72
2022/01/01 02:31:12;;;;;;;2.63;2.27;;;;;;;7.46;100.00;95639.63;4932242;29;20195;-72
2022/01/01 02:33:38;;;;;;;2.60;2.00;;;;;;;7.44;100.00;95641.22;4940992;28;20226;-73
2022/01/01 02:36:05;;;;;;;2.50;2.30;;;;;;;7.38;100.00;95640.94;4933937;29;20194;-73
2022/01/01 02:38:36;;;;;;;4.00;2.40;;;;;;;7.32;100.00;95637.94;4948108;29;20665;-73
2022/01/01 02:41:02;;;;;;;2.50;2.30;;;;;;;7.26;100.00;95642.31;4932050;28;20645;-74
2022/01/01 02:43:31;;;;;;;2.30;2.03;;;;;;;7.21;100.00;95636.63;4959912;28;20217;-73
2022/01/01 02:45:57;;;;;;;3.03;2.03;;;;;;;7.26;100.00;95622.56;4975870;28;20192;-73
2022/01/01 02:48:23;;;;;;;3.13;2.07;;;;;;;7.20;100.00;95616.84;4950722;29;20198;-73
2022/01/01 02:50:51;;;;;;;2.80;2.30;;;;;;;7.17;100.00;95620.41;4961910;28;20280;-73
2022/01/01 02:53:20;;;;;;;2.60;2.10;;;;;;;7.15;100.00;95621.97;4958016;28;20696;-73
2022/01/01 02:55:46;;;;;;;3.87;2.40;;;;;;;7.16;100.00;95612.66;4935700;29;20335;-73
2022/01/01 02:58:13;;;;;;;2.87;2.00;;;;;;;7.26;100.00;95623.31;4936881;29;20709;-73
2022/01/01 03:00:40;;;;;;;2.17;1.97;;;;;;;7.29;100.00;95627.16;4936582;29;20197;-73
2022/01/01 03:03:06;;;;;;;2.03;1.80;;;;;;;7.25;100.00;95610.91;4935186;29;20594;-73
2022/01/01 03:05:33;;;;;;;3.00;2.00;;;;;;;7.28;100.00;95618.22;4936054;29;20260;-73
2022/01/01 03:08:02;;;;;;;2.23;1.67;;;;;;;7.35;100.00;95612.66;4936828;29;20874;-73
2022/01/01 03:10:28;;;;;;;1.60;1.50;;;;;;;7.40;100.00;95607.91;4951263;29;20187;-73
2022/01/01 03:12:53;;;;;;;2.60;1.80;;;;;;;7.31;100.00;95608.47;4954912;28;20678;-73
2022/01/01 03:15:19;;;;;;;3.40;2.30;;;;;;;7.29;100.00;95610.84;4953870;29;20619;-73
2022/01/01 03:17:45;;;;;;;5.00;1.90;;;;;;;7.33;100.00;95609.59;4935373;29;20872;-73
2022/01/01 03:20:11;;;;;;;3.83;1.80;;;;;;;7.35;100.00;95614.59;4959482;28;20797;-73
2022/01/01 03:22:36;;;;;;;1.70;1.57;;;;;;;7.35;100.00;95620.81;4956419;28;20229;-73
2022/01/01 03:25:02;;;;;;;2.30;1.90;;;;;;;7.29;100.00;95627.94;4960986;28;20724;-73
2022/01/01 03:27:28;;;;;;;2.20;1.70;;;;;;;7.23;100.00;95628.81;4970968;28;20559;-72
2022/01/01 03:29:54;;;;;;;3.93;1.60;;;;;;;7.18;100.00;95638.22;4974613;28;20814;-72
2022/01/01 03:32:20;;;;;;;2.87;1.83;;;;;;;7.14;100.00;95642.94;4947525;28;20205;-72
2022/01/01 03:34:46;;;;;;;2.43;1.97;;;;;;;7.09;100.00;95651.56;4966781;28;20205;-73
2022/01/01 03:37:12;;;;;;;3.00;1.97;;;;;;;7.13;100.00;95644.13;4975020;28;20185;-72
2022/01/01 03:39:37;;;;;;;2.90;2.17;;;;;;;7.04;100.00;95640.44;4968728;28;20190;-72
2022/01/01 03:42:03;;;;;;;2.90;1.80;;;;;;;7.11;100.00;95645.75;4953715;28;20221;-72
2022/01/01 03:44:32;;;;;;;2.60;1.87;;;;;;;6.94;100.00;95658.44;4953877;28;20252;-72
2022/01/01 03:47:09;;;;;;;2.13;1.67;;;;;;;6.87;100.00;95642.28;4957845;28;20181;-72
2022/01/01 03:49:41;;;;;;;1.83;1.63;;;;;;;7.01;100.00;95665.69;4949396;28;20230;-73
2022/01/01 03:52:07;;;;;;;2.67;1.50;;;;;;;6.99;100.00;95671.53;4956125;28;20746;-72
2022/01/01 03:54:35;;;;;;;2.50;2.00;;;;;;;6.98;100.00;95658.38;4961088;28;20210;-72
2022/01/01 03:57:01;;;;;;;1.83;1.67;;;;;;;6.99;100.00;95655.25;4962653;28;20212;-72
2022/01/01 03:59:27;;;;;;;2.23;1.60;;;;;;;6.96;100.00;95664.22;4971929;28;20220;-72
2022/01/01 04:01:54;;;;;;;2.90;2.30;;;;;;;6.96;100.00;95677.03;4966794;28;20186;-72
2022/01/01 04:04:22;;;;;;;4.07;2.03;;;;;;;6.96;100.00;95677.81;4937987;29;20222;-72
2022/01/01 04:06:49;;;;;;;2.43;1.90;;;;;;;6.96;100.00;95664.22;4954430;28;20202;-72
2022/01/01 04:09:17;;;;;;;1.80;1.60;;;;;;;6.93;100.00;95683.28;4953002;29;20197;-74
2022/01/01 04:11:43;;;;;;;2.60;1.80;;;;;;;6.93;100.00;95675.94;4953481;29;20288;-72
2022/01/01 04:14:14;;;;;;;1.73;1.63;;;;;;;6.84;100.00;95683.84;4954057;28;20261;-73
2022/01/01 04:16:40;;;;;;;2.20;1.67;;;;;;;6.91;100.00;95674.78;4954399;28;20198;-72
2022/01/01 04:19:08;;;;;;;2.83;2.10;;;;;;;6.74;100.00;95665.00;4952786;28;20201;-72
2022/01/01 04:21:35;;;;;;;3.37;2.13;;;;;;;6.53;100.00;95677.00;4961391;28;20198;-72
2022/01/01 04:24:03;;;;;;;2.93;1.80;;;;;;;6.59;100.00;95669.13;4935507;29;20266;-72
2022/01/01 04:26:29;;;;;;;2.73;1.60;;;;;;;6.52;100.00;95667.31;4902139;29;20191;-72
2022/01/01 04:28:55;;;;;;;2.17;1.63;;;;;;;6.54;100.00;95664.19;4934480;29;20194;-72
2022/01/01 04:31:21;;;;;;;2.73;1.83;;;;;;;6.39;100.00;95652.78;4953229;29;20201;-73
2022/01/01 04:33:47;;;;;;;2.27;1.80;;;;;;;6.29;100.00;95658.38;4954267;28;20304;-73
2022/01/01 04:36:13;;;;;;;5.07;2.27;;;;;;;6.25;100.00;95657.66;4940696;28;20195;-73
2022/01/01 04:38:41;;;;;;;3.40;2.40;;;;;;;6.16;100.00;95658.16;4934112;29;20214;-73
2022/01/01 04:41:15;;;;;;;6.03;3.70;;;;;;;6.26;100.00;95664.63;4941546;28;20628;-73
2022/01/01 04:43:46;;;;;;;4.73;3.30;;;;;;;6.12;100.00;95660.19;4956264;28;20707;-73
2022/01/01 04:46:12;;;;;;;5.97;3.87;;;;;;;5.90;100.00;95670.56;4951229;28;20673;-73
2022/01/01 04:48:38;;;;;;;6.20;4.00;;;;;;;5.91;100.00;95676.72;4941248;28;20281;-73
2022/01/01 04:51:08;;;;;;;6.53;3.80;;;;;;;5.91;100.00;95663.19;4964329;28;20874;-73
2022/01/01 04:53:43;;;;;;;2.90;2.40;;;;;;;5.85;100.00;95671.00;4957616;28;20217;-73
2022/01/01 04:56:09;;;;;;;3.03;2.50;;;;;;;5.84;100.00;95661.34;4953069;29;20593;-73
2022/01/01 04:58:36;;;;;;;4.03;2.60;;;;;;;5.91;100.00;95668.59;4920743;29;20197;-73
2022/01/01 05:01:02;;;;;;;5.27;3.17;;;;;;;5.84;100.00;95671.41;4948640;29;20273;-73
2022/01/01 05:03:28;;;;;;;3.43;2.60;;;;;;;5.74;100.00;95669.56;4918008;29;20233;-73
2022/01/01 05:05:53;;;;;;;5.53;2.80;;;;;;;5.64;100.00;95671.25;4933644;29;20552;-73
2022/01/01 05:08:19;;;;;;;3.40;2.50;;;;;;;5.50;100.00;95676.84;4945557;29;20205;-73
2022/01/01 05:10:45;;;;;;;3.23;2.20;;;;;;;5.28;100.00;95666.66;4942069;29;20736;-74
2022/01/01 05:13:14;;;;;;;6.60;2.67;;;;;;;5.29;100.00;95668.97;4934546;29;20206;-73
2022/01/01 05:15:42;;;;;;;3.00;2.67;;;;;;;5.39;100.00;95672.72;4933467;29;20244;-73
2022/01/01 05:18:08;;;;;;;2.50;2.30;;;;;;;5.34;100.00;95679.38;4940442;28;20186;-73
2022/01/01 05:20:33;;;;;;;2.93;2.40;;;;;;;5.41;100.00;95678.50;4957013;28;20190;-73
2022/01/01 05:22:59;;;;;;;1.93;1.77;;;;;;;5.21;100.00;95677.56;4951130;28;20589;-73
2022/01/01 05:25:25;;;;;;;2.90;2.10;;;;;;;5.15;100.00;95677.25;4948743;29;20210;-73
2022/01/01 05:27:50;;;;;;;4.13;2.70;;;;;;;5.09;100.00;95684.25;4932834;29;20642;-73
2022/01/01 05:30:16;;;;;;;4.67;2.93;;;;;;;5.14;100.00;95686.56;4932901;29;20656;-74
2022/01/01 05:32:42;;;;;;;5.27;3.13;;;;;;;5.23;100.00;95689.53;4932008;29;20560;-72
2022/01/01 05:35:07;;;;;;;4.27;2.13;;;;;;;5.06;100.00;95681.59;4934493;29;20697;-73
2022/01/01 05:37:33;;;;;;;4.20;2.40;;;;;;;5.00;100.00;95678.56;4934502;29;20209;-72
2022/01/01 05:39:59;;;;;;;3.23;2.30;;;;;;;5.14;100.00;95683.84;4932202;29;20212;-73
2022/01/01 05:42:24;;;;;;;4.13;2.87;;;;;;;5.16;100.00;95683.44;4947007;28;20224;-73
2022/01/01 05:44:50;;;;;;;4.10;2.67;;;;;;;5.10;100.00;95679.63;4948618;28;20229;-73
2022/01/01 05:47:16;;;;;;;3.60;2.27;;;;;;;5.05;100.00;95696.28;4948837;29;20691;-73
2022/01/01 05:49:44;;;;;;;3.70;2.47;;;;;;;4.90;100.00;95684.84;4955825;28;20196;-73
2022/01/01 05:52:12;;;;;;;3.80;2.50;;;;;;;4.99;100.00;95678.97;4959716;28;20195;-73
2022/01/01 05:54:38;;;;;;;5.13;2.97;;;;;;;5.10;100.00;95685.03;4933098;29;20209;-73
2022/01/01 05:57:07;;;;;;;3.10;2.27;;;;;;;4.94;100.00;95683.63;4933460;29;20198;-73
2022/01/01 05:59:32;;;;;;;3.80;2.60;;;;;;;5.15;100.00;95687.28;4917559;29;20233;-73
2022/01/01 06:01:58;;;;;;;3.10;2.47;;;;;;;5.19;100.00;95696.16;4918514;29;20198;-73
2022/01/01 06:04:26;;;;;;;2.60;1.97;;;;;;;4.99;100.00;95693.25;4917412;29;20226;-73
2022/01/01 06:06:52;;;;;;;2.67;2.03;;;;;;;4.82;100.00;95696.88;4932704;29;20679;-74
2022/01/01 06:09:20;;;;;;;3.20;2.13;;;;;;;4.67;100.00;95698.19;4947715;29;20240;-74
2022/01/01 06:11:46;;;;;;;3.17;2.40;;;;;;;4.46;100.00;95701.06;4950971;28;20280;-73
2022/01/01 06:14:12;;;;;;;3.13;1.90;;;;;;;4.25;100.00;95698.50;4951944;28;20289;-73
2022/01/01 06:16:37;;;;;;;2.77;2.20;;;;;;;4.05;100.00;95689.38;4952288;28;20371;-73
2022/01/01 06:19:03;;;;;;;3.73;2.50;;;;;;;3.82;100.00;95686.44;4955930;28;20252;-73
2022/01/01 06:21:28;;;;;;;2.23;1.70;;;;;;;3.83;100.00;95696.06;4949266;28;20201;-73
2022/01/01 06:23:54;;;;;;;4.30;1.80;;;;;;;3.85;100.00;95688.34;4937073;28;20233;-73
2022/01/01 06:26:20;;;;;;;2.13;1.93;;;;;;;3.97;100.00;95698.69;4933513;29;20201;-73
2022/01/01 06:28:45;;;;;;;4.07;2.27;;;;;;;4.04;100.00;95699.41;4933463;29;20198;-74
2022/01/01 06:31:11;;;;;;;2.50;2.13;;;;;;;4.11;100.00;95696.66;4932265;29;20198;-73
2022/01/01 06:33:40;;;;;;;3.00;2.40;;;;;;;3.87;100.00;95699.53;4931855;29;20297;-73
2022/01/01 06:36:05;;;;;;;2.47;2.20;;;;;;;3.65;100.00;95686.13;4932651;29;20238;-73
2022/01/01 06:38:31;;;;;;;2.37;2.17;;;;;;;3.50;100.00;95694.66;4933582;29;20230;-73
2022/01/01 06:40:56;;;;;;;5.80;2.47;;;;;;;3.53;100.00;95686.56;4947190;29;20205;-73
2022/01/01 06:43:23;;;;;;;4.23;1.80;;;;;;;3.44;100.00;95690.84;4949008;28;20329;-73
2022/01/01 06:45:51;;;;;;;2.77;2.23;;;;;;;3.51;100.00;95686.19;4970038;28;20201;-73
2022/01/01 06:48:19;;;;;;;2.90;2.30;;;;;;;3.78;100.00;95697.25;4948122;28;20659;-73
2022/01/01 06:50:45;;;;;;;3.77;2.33;;;;;;;3.94;100.00;95697.53;4962455;28;20240;-73
2022/01/01 06:53:11;;;;;;;3.57;2.20;;;;;;;4.09;100.00;95703.66;4948790;28;20300;-73
2022/01/01 06:55:37;;;;;;;3.87;2.37;;;;;;;4.13;100.00;95688.94;4933430;29;20187;-73
2022/01/01 06:58:02;;;;;;;2.90;1.80;;;;;;;4.09;100.00;95687.44;4944548;28;20719;-73
2022/01/01 07:00:28;;;;;;;2.53;1.90;;;;;;;4.06;100.00;95685.50;4952176;28;20289;-73
2022/01/01 07:02:53;;;;;;;3.33;2.20;;;;;;;4.09;100.00;95674.66;4950486;28;20261;-73
2022/01/01 07:05:19;;;;;;;2.13;1.80;;;;;;;4.07;100.00;95666.22;4952815;29;20244;-72
2022/01/01 07:07:45;;;;;;;3.30;2.50;;;;;;;3.68;100.00;95662.97;4953121;29;20197;-73
2022/01/01 07:10:11;;;;;;;3.20;2.47;;;;;;;3.38;100.00;95658.09;4951506;29;20201;-72
2022/01/01 07:12:39;;;;;;;4.13;2.17;;;;;;;3.23;100.00;95663.91;4935632;29;20194;-73
2022/01/01 07:15:09;;;;;;;4.10;2.40;;;;;;;3.26;100.00;95673.94;4948712;29;20681;-73
2022/01/01 07:17:35;;;;;;;2.90;2.40;;;;;;;3.21;100.00;95687.84;4941345;29;20626;-73
2022/01/01 07:20:00;;;;;;;3.47;2.83;;;;;;;3.58;100.00;95678.06;4961853;28;20604;-73
2022/01/01 07:22:26;;;;;;;3.57;2.60;;;;;;;3.22;100.00;95670.50;4949804;28;20657;-73
2022/01/01 07:24:51;;;;;;;3.40;2.57;;;;;;;3.09;100.00;95693.69;4931883;29;20689;-73
2022/01/01 07:27:17;;;;;;;3.93;2.70;;;;;;;3.05;100.00;95690.97;4932018;29;20194;-73
2022/01/01 07:29:43;;;;;;;6.10;2.70;;;;;;;3.45;100.00;95697.78;4941732;28;20628;-73
2022/01/01 07:32:09;;;;;;;3.57;2.70;;;;;;;3.59;100.00;95689.63;4950510;29;20185;-73
2022/01/01 07:34:34;;;;;;;4.73;2.80;;;;;;;3.60;100.00;95697.34;4954827;28;20202;-73
2022/01/01 07:37:00;;;;;;;5.57;3.37;;;;;;;3.66;100.00;95695.00;4954589;29;20667;-73
2022/01/01 07:39:26;;;;;;;5.07;2.53;;;;;;;3.75;100.00;95687.22;4954830;28;20581;-73
2022/01/01 07:41:51;;;;;;;4.73;2.93;;;;;;;3.82;100.00;95687.19;4958929;28;20201;-73
2022/01/01 07:44:17;;;;;;;7.63;2.90;;;;;;;4.06;100.00;95699.78;4942165;29;20321;-73
2022/01/01 07:46:43;;;;;;;3.33;2.80;;;;;;;4.14;100.00;95681.59;4936683;29;20894;-73
2022/01/01 07:49:08;;;;;;;3.77;2.70;;;;;;;4.06;100.00;95688.97;4947843;28;20197;-73
2022/01/01 07:51:36;;;;;;;3.20;2.50;;;;;;;4.14;100.00;95701.28;4942007;29;20212;-72
2022/01/01 07:54:02;;;;;;;3.60;2.60;;;;;;;4.00;100.00;95700.59;4937189;28;20218;-73
2022/01/01 07:56:27;;;;;;;2.77;2.47;;;;;;;4.15;100.00;95686.63;4934774;29;20201;-73
2022/01/01 07:58:53;;;;;;;4.33;2.57;;;;;;;4.12;100.00;95681.22;4919174;29;20198;-72
2022/01/01 08:01:19;;;;;;;2.87;2.37;;;;;;;4.30;100.00;95676.47;4951031;29;20209;-72
2022/01/01 08:03:47;;;;;;;13.67;2.60;;;;;;;4.45;100.00;95683.28;4949886;28;20229;-73
2022/01/01 08:06:12;;;;;;;4.43;2.63;;;;;;;4.54;100.00;95667.38;4937438;29;20191;-72
2022/01/01 08:08:41;;;;;;;3.03;2.70;;;;;;;4.44;100.00;95677.13;4954033;29;20197;-73
2022/01/01 08:11:06;;;;;;;3.53;2.73;;;;;;;4.44;100.00;95660.91;4940659;29;20194;-73
2022/01/01 08:13:35;;;;;;;2.93;2.60;;;;;;;4.40;100.00;95662.09;4934838;29;20217;-72
2022/01/01 08:16:02;;;;;;;6.33;2.63;;;;;;;4.38;100.00;95650.91;4941032;28;20190;-73
2022/01/01 08:18:29;;;;;;;3.33;2.60;;;;;;;4.36;100.00;95659.41;4957404;28;20283;-72
2022/01/01 08:20:56;;;;;;;4.97;3.70;;;;;;;4.60;100.00;95657.66;4934110;29;20194;-72
2022/01/01 08:23:22;;;;;;;6.83;5.00;;;;;;;4.70;100.00;95656.81;4909230;29;20727;-73
2022/01/01 08:25:48;;;;;;;6.90;4.47;;;;;;;4.84;100.00;95654.75;4950321;29;20191;-74
2022/01/01 08:28:16;;;;;;;6.97;3.50;;;;;;;4.82;100.00;95653.59;4934094;29;20643;-73
2022/01/01 08:30:42;;;;;;;4.93;3.00;;;;;;;5.01;100.00;95661.13;4934959;29;20198;-73
2022/01/01 08:33:08;;;;;;;5.83;3.67;;;;;;;5.13;100.00;95674.16;4934025;29;20201;-72
2022/01/01 08:35:35;;;;;;;4.60;3.60;;;;;;;5.30;100.00;95664.31;4934408;29;20201;-73
2022/01/01 08:38:04;;;;;;;4.07;2.87;;;;;;;5.39;100.00;95656.47;4935394;29;20266;-72
2022/01/01 08:40:30;;;;;;;4.63;3.47;;;;;;;5.43;100.00;95682.34;4936116;28;20605;-73
2022/01/01 08:42:57;;;;;;;3.87;3.47;;;;;;;5.60;100.00;95669.78;4973061;28;20189;-72
2022/01/01 08:45:23;;;;;;;5.93;4.27;;;;;;;5.56;100.00;95677.16;4958092;28;20668;-72
2022/01/01 08:47:49;;;;;;;3.53;3.20;;;;;;;5.52;100.00;95681.84;4952747;29;20315;-72
2022/01/01 08:50:15;;;;;;;4.07;2.87;;;;;;;5.72;100.00;95691.66;4944721;28;20668;-72
2022/01/01 08:52:41;;;;;;;4.77;3.33;;;;;;;5.82;100.00;95693.50;4929029;29;20197;-73
2022/01/01 08:55:07;;;;;;;2.77;2.53;;;;;;;5.88;100.00;95701.94;4917660;29;20214;-72
2022/01/01 08:57:33;;;;;;;4.23;3.00;;;;;;;6.02;100.00;95694.38;4934888;29;20613;-72
2022/01/01 09:00:06;;;;;;;3.53;2.90;;;;;;;6.13;100.00;95695.03;4939401;29;20198;-73
2022/01/01 09:02:32;;;;;;;4.30;2.93;;;;;;;6.11;100.00;95691.94;4950189;29;20664;-72
2022/01/01 09:04:57;;;;;;;3.93;3.37;;;;;;;6.08;100.00;95692.00;4952375;28;20226;-73
2022/01/01 09:07:28;;;;;;;3.17;2.70;;;;;;;5.95;100.00;95691.03;4936528;28;20190;-72
2022/01/01 09:09:56;;;;;;;3.77;2.90;;;;;;;5.95;100.00;95701.88;4935957;29;20194;-73
2022/01/01 09:12:21;;;;;;;5.10;2.67;;;;;;;6.03;100.00;95689.75;4953466;28;20648;-73
2022/01/01 09:14:47;;;;;;;3.93;2.67;;;;;;;6.04;100.00;95694.00;4952379;28;20210;-73
2022/01/01 09:17:12;;;;;;;5.33;3.03;;;;;;;6.16;100.00;95701.56;4917257;29;20198;-72
2022/01/01 09:19:38;;;;;;;9.53;3.40;;;;;;;6.26;100.00;95697.19;4952842;28;20284;-73
2022/01/01 09:22:03;;;;;;;3.80;2.70;;;;;;;6.21;100.00;95698.38;4959608;28;20210;-72
2022/01/01 09:24:30;;;;;;;3.13;2.60;;;;;;;6.38;100.00;95713.63;4950819;29;20229;-72
2022/01/01 09:26:56;;;;;;;3.70;2.73;;;;;;;6.41;100.00;95709.34;4951570;29;20624;-72
2022/01/01 09:29:25;;;;;;;5.80;2.53;;;;;;;6.48;100.00;95693.72;4951881;28;20332;-72
2022/01/01 09:31:50;;;;;;;5.27;2.53;;;;;;;6.58;100.00;95692.03;4950390;28;20194;-72
2022/01/01 09:34:16;;;;;;;2.93;2.20;;;;;;;6.58;100.00;95687.38;4973091;28;20200;-72
2022/01/01 09:36:41;;;;;;;4.63;2.83;;;;;;;6.76;100.00;95703.38;4955489;28;20193;-72
2022/01/01 09:39:08;;;;;;;3.37;2.73;;;;;;;6.95;100.00;95691.81;4970095;28;20181;-72
2022/01/01 09:41:34;;;;;;;4.50;2.30;;;;;;;7.10;100.00;95691.16;4951375;28;20561;-72
2022/01/01 09:44:00;;;;;;;3.13;2.60;;;;;;;7.17;100.00;95690.25;4931941;29;20221;-73
2022/01/01 09:46:26;;;;;;;4.13;2.47;;;;;;;7.35;100.00;95705.03;4916501;29;20661;-72
2022/01/01 09:48:53;;;;;;;3.17;2.30;;;;;;;7.42;100.00;95698.69;4916793;29;20209;-72
2022/01/01 09:51:20;;;;;;;2.93;2.17;;;;;;;7.33;100.00;95699.25;4948907;29;20252;-72
2022/01/01 09:53:49;;;;;;;2.67;2.47;;;;;;;7.46;100.00;95706.78;4948178;28;20237;-73
2022/01/01 09:56:15;;;;;;;3.80;2.30;;;;;;;7.47;100.00;95706.38;4950684;29;20575;-73
2022/01/01 09:58:41;;;;;;;3.47;2.60;;;;;;;7.48;100.00;95709.88;4951424;29;20652;-73
2022/01/01 10:01:07;;;;;;;5.17;2.53;;;;;;;7.56;100.00;95709.31;4955411;28;20201;-73
2022/01/01 10:03:40;;;;;;;3.40;1.80;;;;;;;7.61;100.00;95714.25;4953796;28;20277;-73
2022/01/01 10:06:15;;;;;;;2.77;2.17;;;;;;;7.72;100.00;95720.25;4952994;29;20311;-73
2022/01/01 10:08:44;;;;;;;3.70;2.80;;;;;;;7.85;100.00;95717.66;4949490;29;20197;-73
2022/01/01 10:11:17;;;;;;;4.33;2.60;;;;;;;7.93;99.00;95722.53;4948127;29;20199;-73
2022/01/01 10:13:43;;;;;;;5.03;2.40;;;;;;;8.05;98.61;95732.00;4933365;29;20218;-73
2022/01/01 10:16:14;;;;;;;2.83;2.30;;;;;;;8.10;99.04;95732.31;4950628;29;20285;-73
2022/01/01 10:18:48;;;;;;;2.67;2.13;;;;;;;8.13;95.66;95726.00;4933241;29;20249;-73
2022/01/01 10:21:19;;;;;;;4.40;2.63;;;;;;;8.23;97.83;95724.28;4931991;29;20199;-73
2022/01/01 10:23:49;;;;;;;3.63;2.03;;;;;;;8.01;96.96;95706.84;4932974;29;20238;-73
2022/01/01 10:29:08;;;;;;;2.33;1.90;;;;;;;8.02;96.94;95713.81;4935361;29;20292;-73
2022/01/01 10:31:34;;;;;;;2.30;2.07;;;;;;;7.96;94.81;95713.53;4960343;28;20197;-73
2022/01/01 10:34:01;;;;;;;4.70;2.67;;;;;;;8.19;94.20;95705.28;4951841;28;20209;-73
2022/01/01 10:36:30;;;;;;;1.90;1.53;;;;;;;8.22;90.05;95704.44;4935250;29;20220;-73
2022/01/01 10:39:10;;;;;;;2.40;1.80;;;;;;;8.46;90.80;95689.53;4947086;28;20201;-72
2022/01/01 10:41:48;;;;;;;3.80;2.20;;;;;;;8.96;90.66;95689.09;4950930;28;20529;-72
2022/01/01 10:44:14;;;;;;;2.70;1.90;;;;;;;8.87;86.91;95686.22;4950938;28;20228;-72
2022/01/01 10:46:41;;;;;;;2.03;1.73;;;;;;;9.35;85.86;95699.78;4947433;29;20272;-72
2022/01/01 10:50:13;;;;;;;2.70;1.97;;;;;;;9.51;83.31;95696.25;4947213;29;20197;-72
2022/01/01 10:52:27;;;;;;;2.20;2.00;;;;;;;9.45;83.57;95674.19;4947341;28;20207;-72
2022/01/01 10:55:01;;;;;;;2.83;2.37;;;;;;;9.32;81.62;95678.81;4931725;29;20213;-73
2022/01/01 10:57:34;;;;;;;1.80;1.60;;;;;;;9.25;82.15;95679.00;4931507;29;20243;-72
2022/01/01 11:00:12;;;;;;;3.63;1.60;;;;;;;9.37;81.38;95666.63;4953458;28;20200;-72
2022/01/01 11:02:41;;;;;;;3.23;2.03;;;;;;;9.61;80.40;95676.88;4943591;28;20221;-72
2022/01/01 11:05:07;;;;;;;15.53;8.87;;;;;;;9.65;79.93;95658.44;4933584;29;20218;-73
2022/01/01 11:07:34;;;;;;;15.80;9.87;;;;;;;9.71;80.86;95659.44;4951329;29;20195;-73
2022/01/01 11:10:00;;;;;;;7.20;3.20;;;;;;;9.69;81.89;95656.38;4950624;29;20194;-72
2022/01/01 11:12:28;;;;;;;1.97;1.77;;;;;;;9.50;82.19;95656.56;4935327;29;20197;-73
2022/01/01 11:14:55;;;;;;;15.23;10.50;;;;;;;9.35;81.35;95652.69;4951036;29;20912;-73
2022/01/01 11:17:22;;;;;;;5.57;4.23;;;;;;;9.32;81.28;95653.53;4948153;29;20230;-72
2022/01/01 11:19:48;;;;;;;3.27;2.43;;;;;;;9.31;81.48;95647.31;4936735;29;20241;-72
2022/01/01 11:22:21;;;;;;;7.37;3.97;;;;;;;9.26;80.64;95649.81;4919310;29;20813;-73
2022/01/01 11:24:47;;;;;;;4.40;3.13;;;;;;;9.35;80.48;95653.44;4936827;29;20250;-73
2022/01/01 11:27:14;;;;;;;4.10;2.33;;;;;;;9.42;81.26;95645.06;4936775;29;20191;-72
2022/01/01 11:29:50;;;;;;;2.50;1.80;;;;;;;9.60;80.35;95647.31;4953710;29;20212;-73
2022/01/01 11:32:20;;;;;;;2.67;1.80;;;;;;;9.55;80.02;95634.94;4946939;29;20671;-73
2022/01/01 11:34:49;;;;;;;2.47;1.80;;;;;;;9.63;79.69;95635.53;4954254;28;20635;-73
2022/01/01 11:37:15;;;;;;;2.07;1.80;;;;;;;9.57;80.35;95640.75;4938215;29;20193;-72
2022/01/01 11:39:43;;;;;;;3.17;1.93;;;;;;;9.60;81.38;95652.75;4936744;29;20194;-73